Time;durP1;ratioP1;P1;durP2;ratioP2;P2;SDS_P1;SDS_P2;PMS_P1;PMS_P2;Temp;Humidity;BMP_temperature;BMP_pressure;BME280_temperature;BME280_humidity;BME280_pressure;Samples;Min_cycle;Max_cycle;Signal;HPM_P1;HPM_P2
2023/10/11 00:02:58;;;;;;;11.15;5.30;;;15.70;99.90;;;;;;5069892;28;20494;-34
2023/10/11 00:05:24;;;;;;;10.73;5.18;;;15.70;99.90;;;;;;5074390;28;20044;-34
2023/10/11 00:07:57;;;;;;;10.63;4.97;;;15.70;99.90;;;;;;5065943;28;20056;-34
2023/10/11 00:10:22;;;;;;;9.82;4.90;;;15.70;99.90;;;;;;5078560;28;20390;-37
2023/10/11 00:12:52;;;;;;;13.07;5.15;;;15.70;99.90;;;;;;5062839;28;20051;-34
2023/10/11 00:15:17;;;;;;;9.45;4.95;;;15.70;99.90;;;;;;5077546;28;20060;-33
2023/10/11 00:17:46;;;;;;;15.13;5.30;;;15.70;99.90;;;;;;5068048;28;20485;-34
2023/10/11 00:20:50;;;;;;;12.60;5.82;;;15.70;99.90;;;;;;5074000;28;20387;-34
2023/10/11 00:23:00;;;;;;;13.18;5.90;;;15.80;99.90;;;;;;5065635;28;20048;-33
2023/10/11 00:25:30;;;;;;;12.23;5.78;;;15.80;99.90;;;;;;5055415;28;20518;-33
2023/10/11 00:27:59;;;;;;;14.15;5.93;;;15.80;99.90;;;;;;5062696;28;20048;-33
2023/10/11 00:30:25;;;;;;;11.27;5.95;;;15.80;99.90;;;;;;5058176;28;20479;-33
2023/10/11 00:32:52;;;;;;;12.68;5.80;;;15.80;99.90;;;;;;5046751;28;20056;-33
2023/10/11 00:35:19;;;;;;;10.93;5.70;;;15.80;99.90;;;;;;5060453;28;20113;-34
2023/10/11 00:37:47;;;;;;;17.33;6.20;;;15.70;99.90;;;;;;5056853;28;20052;-33
2023/10/11 00:40:14;;;;;;;18.17;6.07;;;15.80;99.90;;;;;;5056406;28;20091;-33
2023/10/11 00:42:41;;;;;;;14.10;6.38;;;15.80;99.90;;;;;;5055111;28;20036;-34
2023/10/11 00:45:09;;;;;;;14.23;6.68;;;15.70;99.90;;;;;;5061170;28;20041;-35
2023/10/11 00:47:40;;;;;;;17.90;6.95;;;15.80;99.90;;;;;;5063866;28;20047;-33
2023/10/11 00:50:14;;;;;;;17.65;7.68;;;15.80;99.90;;;;;;5053177;28;20061;-35
2023/10/11 00:52:45;;;;;;;14.52;6.93;;;15.80;99.90;;;;;;5059378;28;20490;-34
2023/10/11 00:55:17;;;;;;;14.25;7.05;;;15.80;99.90;;;;;;5060766;28;20048;-33
2023/10/11 00:57:49;;;;;;;18.45;7.45;;;15.80;99.90;;;;;;5058159;28;20494;-34
2023/10/11 01:00:17;;;;;;;19.13;7.70;;;15.80;99.90;;;;;;5059819;28;20183;-34
2023/10/11 01:02:46;;;;;;;16.55;7.90;;;15.80;99.90;;;;;;5045246;28;20094;-35
2023/10/11 01:05:12;;;;;;;16.23;8.27;;;15.80;99.90;;;;;;5051112;28;20044;-33
2023/10/11 01:07:39;;;;;;;18.50;7.28;;;15.80;99.90;;;;;;5060706;28;20045;-33
2023/10/11 01:10:08;;;;;;;18.60;7.60;;;15.80;99.90;;;;;;5058299;28;20067;-32
2023/10/11 01:12:34;;;;;;;16.48;7.43;;;15.80;99.90;;;;;;5048153;28;20094;-33
2023/10/11 01:15:01;;;;;;;14.48;7.82;;;15.80;99.90;;;;;;5063482;28;20494;-43
2023/10/11 01:17:26;;;;;;;15.63;7.80;;;15.80;99.90;;;;;;5057627;28;20418;-34
2023/10/11 01:19:53;;;;;;;16.00;8.43;;;15.80;99.90;;;;;;5062301;28;20077;-34
2023/10/11 01:22:19;;;;;;;13.55;8.05;;;15.80;99.90;;;;;;5056062;28;20041;-34
2023/10/11 01:24:47;;;;;;;19.88;9.20;;;15.80;99.90;;;;;;5082905;28;20501;-34
2023/10/11 01:27:16;;;;;;;15.02;7.45;;;15.80;99.90;;;;;;5074936;28;20131;-34
2023/10/11 01:29:42;;;;;;;19.23;8.98;;;15.80;99.90;;;;;;5057713;28;20036;-34
2023/10/11 01:32:10;;;;;;;20.52;9.07;;;15.80;99.90;;;;;;5071255;28;20079;-35
2023/10/11 01:34:36;;;;;;;20.17;8.50;;;15.80;99.90;;;;;;5069135;28;20048;-34
2023/10/11 01:37:01;;;;;;;16.40;8.27;;;15.80;99.90;;;;;;5074771;28;20566;-33
2023/10/11 01:39:27;;;;;;;18.95;7.97;;;15.70;99.90;;;;;;5064539;28;20052;-40
2023/10/11 01:41:58;;;;;;;15.70;8.13;;;15.80;99.90;;;;;;5076548;28;20486;-35
2023/10/11 01:44:24;;;;;;;21.33;8.73;;;15.80;99.90;;;;;;5054963;28;20570;-35
2023/10/11 01:46:50;;;;;;;16.88;8.73;;;15.70;99.90;;;;;;5042658;28;20041;-35
2023/10/11 01:49:15;;;;;;;16.90;8.90;;;15.70;99.90;;;;;;5062805;28;20055;-35
2023/10/11 01:51:47;;;;;;;16.00;8.40;;;15.70;99.90;;;;;;5070678;28;20048;-34
2023/10/11 01:54:18;;;;;;;13.98;7.93;;;15.70;99.90;;;;;;5063758;28;20055;-38
2023/10/11 01:56:45;;;;;;;15.95;8.13;;;15.70;99.90;;;;;;5068516;28;20094;-36
2023/10/11 01:59:12;;;;;;;17.83;8.63;;;15.60;99.90;;;;;;5077522;28;20782;-35
2023/10/11 02:01:40;;;;;;;15.38;8.50;;;15.60;99.90;;;;;;5068110;28;20995;-36
2023/10/11 02:04:17;;;;;;;15.63;8.10;;;15.60;99.90;;;;;;5056358;28;20052;-35
2023/10/11 02:06:43;;;;;;;16.13;7.53;;;15.60;99.90;;;;;;5054669;28;20143;-35
2023/10/11 02:09:10;;;;;;;22.35;8.82;;;15.60;99.90;;;;;;5068722;28;20045;-35
2023/10/11 02:11:41;;;;;;;18.58;7.68;;;15.50;99.90;;;;;;5079349;28;20496;-35
2023/10/11 02:14:07;;;;;;;15.30;7.93;;;15.50;99.90;;;;;;5075816;28;20048;-36
2023/10/11 02:16:33;;;;;;;17.63;9.38;;;15.50;99.90;;;;;;5079848;28;20543;-35
2023/10/11 02:19:00;;;;;;;18.95;8.27;;;15.50;99.90;;;;;;5084295;28;20056;-35
2023/10/11 02:21:29;;;;;;;15.57;8.68;;;15.50;99.90;;;;;;5094300;28;20068;-36
2023/10/11 02:23:59;;;;;;;15.65;8.32;;;15.40;99.90;;;;;;5067004;28;20053;-36
2023/10/11 02:26:29;;;;;;;13.98;8.00;;;15.40;99.90;;;;;;5062512;28;20124;-35
2023/10/11 02:28:56;;;;;;;15.25;8.32;;;15.40;99.90;;;;;;5064155;28;20063;-34
2023/10/11 02:31:25;;;;;;;16.67;7.97;;;15.30;99.90;;;;;;5039907;28;20498;-35
2023/10/11 02:33:51;;;;;;;16.55;8.00;;;15.30;99.90;;;;;;5058770;28;20052;-35
2023/10/11 02:36:18;;;;;;;18.27;8.68;;;15.30;99.90;;;;;;5035245;28;20071;-35
2023/10/11 02:38:50;;;;;;;14.93;7.55;;;15.30;99.90;;;;;;5054605;28;20453;-35
2023/10/11 02:41:20;;;;;;;15.40;8.25;;;15.30;99.90;;;;;;5051307;28;20059;-35
2023/10/11 02:43:50;;;;;;;17.42;8.32;;;15.30;99.90;;;;;;5064270;28;20101;-35
2023/10/11 02:46:16;;;;;;;15.05;6.88;;;15.30;99.90;;;;;;5064688;28;20052;-35
2023/10/11 02:48:46;;;;;;;17.45;8.10;;;15.30;99.90;;;;;;5062766;28;20056;-35
2023/10/11 02:51:17;;;;;;;15.98;8.02;;;15.30;99.90;;;;;;5061078;28;20058;-35
2023/10/11 02:53:46;;;;;;;15.47;7.77;;;15.30;99.90;;;;;;5066070;28;20056;-35
2023/10/11 02:56:13;;;;;;;16.42;7.55;;;15.20;99.90;;;;;;5058913;28;20044;-35
2023/10/11 02:58:39;;;;;;;16.92;7.65;;;15.20;99.90;;;;;;5060574;28;20053;-35
2023/10/11 03:01:14;;;;;;;15.65;7.00;;;15.20;99.90;;;;;;5041479;28;20086;-36
2023/10/11 03:03:44;;;;;;;14.07;6.97;;;15.20;99.90;;;;;;5067411;28;20060;-43
2023/10/11 03:06:10;;;;;;;16.20;7.43;;;15.20;99.90;;;;;;5052362;28;20524;-35
2023/10/11 03:08:37;;;;;;;17.20;7.63;;;15.20;99.90;;;;;;5063536;28;20056;-35
2023/10/11 03:11:08;;;;;;;16.73;7.20;;;15.20;99.90;;;;;;5063861;28;20114;-36
2023/10/11 03:13:44;;;;;;;14.10;7.18;;;15.20;99.90;;;;;;5049974;28;20574;-35
2023/10/11 03:16:16;;;;;;;13.85;7.20;;;15.10;99.90;;;;;;5056954;28;20465;-34
2023/10/11 03:18:46;;;;;;;20.30;8.18;;;15.10;99.90;;;;;;5063139;28;20059;-35
2023/10/11 03:21:16;;;;;;;17.38;7.65;;;15.20;99.90;;;;;;5064782;28;20464;-35
2023/10/11 03:23:47;;;;;;;17.58;7.78;;;15.20;99.90;;;;;;5054203;28;20072;-35
2023/10/11 03:26:19;;;;;;;19.15;7.55;;;15.10;99.90;;;;;;5063446;28;20053;-35
2023/10/11 03:28:57;;;;;;;17.50;6.78;;;15.20;99.90;;;;;;5059067;28;20068;-35
2023/10/11 03:31:44;;;;;;;16.75;8.10;;;15.20;99.90;;;;;;5064808;28;21491;-35
2023/10/11 03:34:17;;;;;;;16.05;7.65;;;15.20;99.90;;;;;;5066066;28;20052;-35
2023/10/11 03:36:51;;;;;;;17.48;7.35;;;15.20;99.90;;;;;;5059833;28;20055;-34
2023/10/11 03:39:56;;;;;;;14.75;6.47;;;15.30;99.90;;;;;;5054913;28;20171;-35
2023/10/11 03:44:45;;;;;;;14.38;7.07;;;15.30;99.90;;;;;;5057779;28;20179;-35
2023/10/11 03:47:14;;;;;;;18.17;7.07;;;15.40;99.90;;;;;;5056194;28;20228;-35
2023/10/11 03:52:32;;;;;;;14.10;7.70;;;15.50;99.90;;;;;;5058810;28;20051;-34
2023/10/11 03:55:10;;;;;;;18.15;7.18;;;15.50;99.90;;;;;;5057551;28;20670;-35
2023/10/11 03:57:44;;;;;;;17.63;7.18;;;15.50;99.90;;;;;;5058359;28;20056;-35
2023/10/11 04:03:02;;;;;;;19.92;7.40;;;15.60;99.90;;;;;;5057532;28;20482;-35
2023/10/11 04:05:34;;;;;;;17.33;7.35;;;15.60;99.90;;;;;;5056955;28;20915;-34
2023/10/11 04:08:05;;;;;;;;;;;15.60;99.90;;;;;;5055800;28;20482;-34
2023/10/11 04:10:42;;;;;;;16.45;7.90;;;15.60;99.90;;;;;;5047846;28;19924;-35
2023/10/11 04:13:14;;;;;;;18.20;7.95;;;15.60;99.90;;;;;;5041175;28;20143;-35
2023/10/11 04:15:44;;;;;;;18.37;8.23;;;15.60;99.90;;;;;;5063509;28;20139;-35
2023/10/11 04:23:39;;;;;;;15.93;7.63;;;15.50;99.90;;;;;;5062650;28;20057;-35
2023/10/11 04:26:08;;;;;;;15.02;7.63;;;15.60;99.90;;;;;;5065476;28;20505;-36
2023/10/11 04:28:34;;;;;;;18.10;6.72;;;15.60;99.90;;;;;;5055628;28;21742;-35
2023/10/11 04:33:50;;;;;;;15.60;7.50;;;15.60;99.90;;;;;;5049741;28;20065;-35
2023/10/11 04:36:20;;;;;;;22.55;7.68;;;15.60;99.90;;;;;;5064701;28;20064;-32
2023/10/11 04:38:49;;;;;;;20.67;8.93;;;15.60;99.90;;;;;;5063813;28;20048;-35
2023/10/11 04:41:20;;;;;;;15.98;7.65;;;15.60;99.90;;;;;;5065277;28;20044;-35
2023/10/11 04:44:04;;;;;;;16.05;8.00;;;15.60;99.90;;;;;;5056557;28;20080;-35
2023/10/11 04:46:31;;;;;;;15.85;8.23;;;15.70;99.90;;;;;;5057614;28;20080;-37
2023/10/11 04:49:18;;;;;;;20.77;8.60;;;15.70;99.90;;;;;;5061223;28;20433;-35
2023/10/11 04:51:45;;;;;;;15.48;7.68;;;15.80;99.90;;;;;;5051634;28;20060;-34
2023/10/11 04:54:13;;;;;;;22.75;9.10;;;15.80;99.90;;;;;;5061939;28;20948;-35
2023/10/11 04:59:16;;;;;;;20.67;8.70;;;15.80;99.90;;;;;;5064326;28;20200;-35
2023/10/11 05:04:15;;;;;;;18.88;8.35;;;15.90;99.90;;;;;;5043849;28;20424;-33
2023/10/11 05:06:44;;;;;;;19.98;9.00;;;15.90;99.90;;;;;;5049828;28;20056;-32
2023/10/11 05:11:50;;;;;;;19.15;8.98;;;15.90;99.90;;;;;;5060104;28;20172;-33
2023/10/11 05:28:07;;;;;;;16.65;8.73;;;15.70;99.90;;;;;;5068309;28;20115;-35
2023/10/11 05:30:37;;;;;;;20.10;8.95;;;15.70;99.90;;;;;;5058248;28;20048;-33
2023/10/11 05:52:14;;;;;;;26.08;10.00;;;15.60;99.90;;;;;;5056934;28;20052;-33
2023/10/11 05:54:40;;;;;;;19.25;9.57;;;15.60;99.90;;;;;;5060049;28;20048;-34
2023/10/11 05:57:06;;;;;;;28.05;11.15;;;15.60;99.90;;;;;;5059838;28;20105;-33
2023/10/11 05:59:35;;;;;;;27.05;9.55;;;15.50;99.90;;;;;;5058579;28;20052;-34
2023/10/11 06:02:07;;;;;;;22.27;9.88;;;15.50;99.90;;;;;;5048736;28;20055;-33
2023/10/11 06:04:39;;;;;;;22.25;10.57;;;15.50;99.90;;;;;;5064281;28;20107;-34
2023/10/11 06:07:15;;;;;;;24.60;10.65;;;15.50;99.90;;;;;;5040099;28;20552;-32
2023/10/11 06:09:46;;;;;;;23.98;9.85;;;15.50;99.90;;;;;;5039273;28;20402;-33
2023/10/11 06:12:25;;;;;;;23.50;10.32;;;15.50;99.90;;;;;;5055796;28;20064;-34
2023/10/11 06:14:55;;;;;;;20.77;10.57;;;15.50;99.90;;;;;;5057508;28;20143;-38
2023/10/11 06:17:21;;;;;;;20.20;9.93;;;15.50;99.90;;;;;;5058790;28;20083;-33
2023/10/11 06:19:54;;;;;;;23.15;10.63;;;15.50;99.90;;;;;;5058362;28;20060;-33
2023/10/11 06:22:28;;;;;;;25.08;10.35;;;15.50;99.90;;;;;;5066818;28;20058;-34
2023/10/11 06:24:55;;;;;;;24.60;9.55;;;15.50;99.90;;;;;;5085070;28;20102;-34
2023/10/11 06:30:22;;;;;;;22.67;9.20;;;15.50;99.90;;;;;;4980349;28;20061;-33
2023/10/11 06:32:49;;;;;;;20.40;9.98;;;15.60;99.90;;;;;;5040372;28;20052;-33
2023/10/11 06:35:23;;;;;;;20.58;10.10;;;15.60;99.90;;;;;;5079911;28;20048;-33
2023/10/11 06:37:53;;;;;;;19.67;8.75;;;15.60;99.90;;;;;;5076748;28;20383;-33
2023/10/11 06:43:08;;;;;;;20.55;9.75;;;15.60;99.90;;;;;;5079017;28;20048;-34
2023/10/11 06:45:34;;;;;;;25.85;10.15;;;15.60;99.90;;;;;;5084600;28;20127;-33
2023/10/11 06:48:06;;;;;;;17.42;9.02;;;15.60;99.90;;;;;;5082849;28;20131;-34
2023/10/11 06:50:38;;;;;;;20.38;9.98;;;15.60;99.90;;;;;;5081700;28;20064;-34
2023/10/11 06:53:08;;;;;;;23.60;10.35;;;15.70;99.90;;;;;;5076641;28;20064;-32
2023/10/11 06:55:35;;;;;;;24.33;10.00;;;15.70;99.90;;;;;;5076417;28;20497;-34
2023/10/11 06:58:09;;;;;;;19.85;9.82;;;15.70;99.90;;;;;;5079864;28;20040;-33
2023/10/11 07:00:45;;;;;;;20.85;10.10;;;15.80;99.90;;;;;;5074397;28;20056;-34
2023/10/11 07:05:50;;;;;;;23.60;10.13;;;15.80;99.90;;;;;;5079772;28;20742;-33
2023/10/11 07:08:20;;;;;;;22.65;9.70;;;15.80;99.90;;;;;;5076793;28;20135;-34
2023/10/11 07:13:54;;;;;;;21.23;10.27;;;15.90;99.90;;;;;;5082063;28;20052;-34
2023/10/11 07:16:27;;;;;;;25.48;10.77;;;15.90;99.90;;;;;;5064670;28;20140;-35
2023/10/11 07:18:57;;;;;;;21.83;10.15;;;15.90;99.90;;;;;;5059172;28;20089;-34
2023/10/11 07:24:19;;;;;;;26.35;11.77;;;16.00;99.90;;;;;;5060354;28;20055;-35
2023/10/11 07:29:13;;;;;;;35.42;13.45;;;16.10;99.90;;;;;;5041518;28;19982;-34
2023/10/11 07:31:48;;;;;;;29.13;12.75;;;16.10;99.90;;;;;;5040826;28;20056;-34
2023/10/11 07:34:17;;;;;;;24.27;12.50;;;16.20;99.90;;;;;;5048772;28;20425;-34
2023/10/11 07:36:45;;;;;;;24.23;12.40;;;16.20;99.90;;;;;;5040081;28;20094;-35
2023/10/11 07:39:15;;;;;;;19.35;10.35;;;16.30;99.90;;;;;;5062530;28;20242;-34
2023/10/11 07:41:44;;;;;;;35.17;12.50;;;16.30;99.90;;;;;;5052301;28;20049;-34
2023/10/11 07:44:11;;;;;;;28.55;11.27;;;16.40;99.90;;;;;;5059180;28;20059;-34
2023/10/11 07:46:38;;;;;;;26.88;12.25;;;16.40;99.90;;;;;;5043841;28;20081;-35
2023/10/11 07:49:07;;;;;;;28.85;11.70;;;16.40;99.90;;;;;;5050904;28;20044;-35
2023/10/11 07:51:41;;;;;;;28.10;12.23;;;16.40;99.90;;;;;;5049948;28;20159;-34
2023/10/11 07:54:07;;;;;;;28.60;12.88;;;16.50;99.90;;;;;;5057017;28;20556;-34
2023/10/11 07:56:37;;;;;;;27.10;11.90;;;16.50;99.90;;;;;;5054757;28;20082;-35
2023/10/11 07:59:09;;;;;;;29.02;11.70;;;16.50;99.90;;;;;;5032228;28;20402;-34
2023/10/11 08:01:45;;;;;;;25.45;12.25;;;16.50;99.90;;;;;;5055801;28;20067;-33
2023/10/11 08:04:21;;;;;;;29.70;13.02;;;16.50;99.90;;;;;;5041266;28;20495;-34
2023/10/11 08:06:51;;;;;;;26.33;11.30;;;16.50;99.90;;;;;;5038804;28;20049;-33
2023/10/11 08:09:21;;;;;;;26.60;11.68;;;16.50;99.90;;;;;;5050395;28;20048;-33
2023/10/11 08:11:52;;;;;;;24.13;11.65;;;16.50;99.90;;;;;;5048146;28;20055;-33
2023/10/11 08:14:22;;;;;;;24.40;11.65;;;16.50;99.90;;;;;;5046957;28;20051;-33
2023/10/11 08:16:51;;;;;;;28.85;12.13;;;16.50;99.90;;;;;;5048871;28;20457;-33
2023/10/11 08:19:18;;;;;;;22.98;11.60;;;16.50;99.90;;;;;;5058280;28;20053;-33
2023/10/11 08:21:57;;;;;;;26.88;11.93;;;16.50;99.90;;;;;;5055336;28;20087;-34
2023/10/11 08:24:27;;;;;;;26.55;12.18;;;16.50;99.90;;;;;;5057590;28;20060;-34
2023/10/11 08:26:57;;;;;;;30.75;11.93;;;16.50;99.90;;;;;;5061962;28;20143;-34
2023/10/11 08:29:29;;;;;;;30.63;12.52;;;16.60;99.90;;;;;;5040286;28;20389;-35
2023/10/11 08:31:57;;;;;;;27.02;11.50;;;16.60;99.90;;;;;;5059326;28;20495;-34
2023/10/11 08:34:27;;;;;;;26.13;11.57;;;16.60;99.90;;;;;;5044835;28;20123;-33
2023/10/11 08:36:56;;;;;;;27.10;12.98;;;16.60;99.90;;;;;;5040296;28;20144;-34
2023/10/11 08:39:44;;;;;;;28.80;12.48;;;16.50;99.90;;;;;;5057844;28;20082;-34
2023/10/11 08:42:16;;;;;;;29.75;12.80;;;16.50;99.90;;;;;;5051726;28;20055;-34
2023/10/11 08:44:45;;;;;;;30.08;11.93;;;16.50;99.90;;;;;;5070058;28;20452;-34
2023/10/11 08:47:19;;;;;;;25.63;11.73;;;16.50;99.90;;;;;;5054067;28;20049;-33
2023/10/11 08:49:48;;;;;;;25.02;12.27;;;16.60;99.90;;;;;;5060528;28;20056;-34
2023/10/11 08:52:24;;;;;;;26.75;11.40;;;16.60;99.90;;;;;;5053351;28;20060;-33
2023/10/11 08:54:51;;;;;;;24.58;11.75;;;16.60;99.90;;;;;;5056923;28;20461;-33
2023/10/11 08:57:23;;;;;;;27.90;12.15;;;16.60;99.90;;;;;;5059801;28;20399;-33
2023/10/11 08:59:51;;;;;;;26.83;11.20;;;16.60;99.90;;;;;;5055506;28;20489;-34
2023/10/11 09:02:17;;;;;;;26.85;11.77;;;16.70;99.90;;;;;;5048311;28;20040;-33
2023/10/11 09:05:06;;;;;;;29.65;11.50;;;16.70;99.90;;;;;;5059715;28;20095;-34
2023/10/11 09:07:51;;;;;;;25.33;9.90;;;16.70;99.90;;;;;;5044857;28;20063;-34
2023/10/11 09:10:30;;;;;;;23.05;10.80;;;16.70;99.90;;;;;;5056820;28;20048;-34
2023/10/11 09:12:57;;;;;;;25.73;10.82;;;16.70;99.90;;;;;;5063110;28;20135;-34
2023/10/11 09:15:32;;;;;;;21.73;10.40;;;16.70;99.90;;;;;;5046455;28;20053;-34
2023/10/11 09:18:17;;;;;;;23.00;10.25;;;16.80;99.90;;;;;;5066167;28;20163;-35
2023/10/11 09:20:49;;;;;;;21.08;10.27;;;16.80;99.90;;;;;;5057933;28;20060;-34
2023/10/11 09:23:20;;;;;;;24.83;10.40;;;16.90;99.90;;;;;;5048154;28;20043;-34
2023/10/11 09:26:05;;;;;;;22.45;9.32;;;16.90;99.90;;;;;;5080365;28;20595;-39
2023/10/11 09:28:40;;;;;;;25.73;9.70;;;16.90;99.90;;;;;;5084711;28;20480;-34
2023/10/11 09:31:21;;;;;;;20.45;8.73;;;16.90;99.90;;;;;;5083683;28;20047;-34
2023/10/11 09:33:51;;;;;;;16.67;8.20;;;16.90;99.90;;;;;;5080685;28;20048;-34
2023/10/11 09:36:20;;;;;;;21.35;8.63;;;17.00;99.90;;;;;;5090720;28;20048;-56
2023/10/11 09:38:54;;;;;;;21.33;7.47;;;17.00;99.90;;;;;;5081738;28;20097;-34
2023/10/11 09:41:26;;;;;;;14.57;6.43;;;17.00;99.90;;;;;;5079708;28;21527;-33
2023/10/11 09:43:57;;;;;;;16.48;7.80;;;17.10;99.90;;;;;;5084058;28;20130;-34
2023/10/11 09:46:29;;;;;;;13.27;6.15;;;17.10;99.90;;;;;;5078860;28;20052;-34
2023/10/11 09:48:56;;;;;;;;;;;17.20;99.90;;;;;;5078411;28;20525;-34
2023/10/11 09:51:24;;;;;;;15.73;5.80;;;17.20;99.90;;;;;;5078426;28;20405;-34
2023/10/11 09:53:51;;;;;;;15.75;5.00;;;17.20;99.90;;;;;;5093981;28;20056;-34
2023/10/11 09:56:45;;;;;;;12.48;4.63;;;17.30;99.90;;;;;;5063661;28;20058;-34
2023/10/11 09:59:23;;;;;;;10.88;5.00;;;17.30;99.90;;;;;;5078893;28;20056;-33
2023/10/11 10:02:05;;;;;;;12.70;4.63;;;17.20;99.90;;;;;;5079436;28;20052;-33
2023/10/11 10:05:05;;;;;;;12.48;5.07;;;17.30;99.90;;;;;;5085012;28;20047;-33
2023/10/11 10:07:42;;;;;;;15.85;4.30;;;17.50;99.90;;;;;;5057135;28;20074;-34
2023/10/11 10:10:15;;;;;;;12.13;3.78;;;17.60;99.90;;;;;;5088560;28;20550;-33
2023/10/11 10:12:58;;;;;;;12.20;3.83;;;17.90;99.90;;;;;;5078595;28;20056;-33
2023/10/11 10:15:31;;;;;;;8.30;3.47;;;18.00;99.90;;;;;;5087934;28;20048;-34
2023/10/11 10:18:00;;;;;;;10.00;3.22;;;18.10;99.90;;;;;;5068057;28;20048;-34
2023/10/11 10:20:41;;;;;;;9.02;2.70;;;18.20;99.90;;;;;;5083480;28;20501;-34
2023/10/11 10:23:16;;;;;;;7.07;2.33;;;18.40;99.90;;;;;;5089098;28;20047;-34
2023/10/11 10:25:46;;;;;;;5.47;2.33;;;18.50;99.90;;;;;;5082174;28;20131;-34
2023/10/11 10:28:34;;;;;;;9.18;2.63;;;18.60;99.90;;;;;;5085880;28;20420;-35
2023/10/11 10:31:16;;;;;;;6.03;2.63;;;18.60;99.90;;;;;;5066338;28;20064;-33
2023/10/11 10:34:06;;;;;;;7.50;2.95;;;18.50;99.90;;;;;;5078400;28;20048;-34
2023/10/11 10:36:32;;;;;;;9.45;2.67;;;18.50;99.90;;;;;;5063759;28;20059;-34
2023/10/11 10:39:00;;;;;;;7.55;2.70;;;18.60;99.90;;;;;;5084073;28;20048;-33
2023/10/11 10:41:27;;;;;;;6.85;2.58;;;18.60;99.90;;;;;;5083389;28;20490;-33
2023/10/11 10:44:12;;;;;;;7.80;2.95;;;18.70;99.90;;;;;;5076325;28;20514;-42
2023/10/11 10:46:59;;;;;;;5.85;2.88;;;18.80;99.90;;;;;;5075280;28;20528;-33
2023/10/11 10:49:42;;;;;;;6.15;2.10;;;18.80;99.90;;;;;;5064446;28;20059;-33
2023/10/11 10:52:29;;;;;;;7.90;2.28;;;18.90;99.90;;;;;;5088717;28;20097;-35
2023/10/11 10:55:03;;;;;;;6.22;2.03;;;19.10;99.90;;;;;;5080174;28;20520;-33
2023/10/11 10:57:36;;;;;;;12.10;2.90;;;19.20;99.90;;;;;;5075950;28;20051;-34
2023/10/11 11:00:09;;;;;;;7.55;2.35;;;19.30;99.90;;;;;;5082536;28;20048;-34
2023/10/11 11:02:35;;;;;;;5.45;1.90;;;19.40;99.90;;;;;;5062398;28;20059;-34
2023/10/11 11:05:09;;;;;;;9.45;2.53;;;19.50;99.90;;;;;;5079708;28;20051;-34
2023/10/11 11:07:35;;;;;;;5.72;2.38;;;19.60;99.90;;;;;;5073330;28;20060;-34
2023/10/11 11:10:01;;;;;;;9.00;2.63;;;19.70;99.90;;;;;;5073318;28;20305;-35
2023/10/11 11:12:31;;;;;;;6.72;2.75;;;19.50;99.90;;;;;;5076399;28;20087;-34
2023/10/11 11:15:00;;;;;;;6.57;2.45;;;19.40;99.90;;;;;;5054188;28;20105;-35
2023/10/11 11:17:47;;;;;;;6.20;2.40;;;19.30;99.90;;;;;;5073658;28;20138;-34
2023/10/11 11:22:52;;;;;;;7.90;2.38;;;19.30;99.90;;;;;;5071938;28;21190;-34
2023/10/11 11:25:27;;;;;;;8.48;3.15;;;19.20;99.90;;;;;;5073779;28;20060;-34
2023/10/11 11:28:16;;;;;;;4.45;2.15;;;19.20;99.90;;;;;;5074483;28;20047;-34
2023/10/11 11:30:51;;;;;;;5.35;1.67;;;19.10;99.90;;;;;;5075422;28;20052;-35
2023/10/11 11:33:28;;;;;;;6.10;1.85;;;19.10;99.90;;;;;;5075283;28;20151;-34
2023/10/11 11:35:55;;;;;;;6.78;2.00;;;19.00;99.90;;;;;;5071033;28;20129;-34
2023/10/11 11:38:21;;;;;;;6.60;2.42;;;19.10;99.90;;;;;;5076222;28;20055;-34
2023/10/11 11:41:00;;;;;;;8.65;2.45;;;19.10;99.90;;;;;;5079822;28;20092;-34
2023/10/11 11:43:38;;;;;;;10.50;2.40;;;19.10;99.90;;;;;;5082706;28;20090;-34
2023/10/11 11:46:04;;;;;;;4.10;1.90;;;19.20;99.90;;;;;;5085296;28;20044;-34
2023/10/11 11:48:40;;;;;;;8.20;2.20;;;19.30;99.90;;;;;;5080470;28;20626;-34
2023/10/11 11:51:08;;;;;;;8.25;2.20;;;19.40;99.90;;;;;;5084735;28;20052;-33
2023/10/11 11:53:33;;;;;;;8.02;2.28;;;19.60;99.90;;;;;;5085137;28;20048;-34
2023/10/11 11:56:00;;;;;;;6.40;2.17;;;19.70;99.90;;;;;;5078229;28;20055;-34
2023/10/11 11:58:26;;;;;;;7.07;2.13;;;19.70;99.90;;;;;;5056097;28;20051;-34
2023/10/11 12:01:15;;;;;;;8.15;2.10;;;19.80;99.90;;;;;;5076592;28;20036;-34
2023/10/11 12:03:42;;;;;;;7.78;2.40;;;19.80;99.90;;;;;;5056772;28;20266;-35
2023/10/11 12:06:21;;;;;;;9.38;1.83;;;19.80;99.90;;;;;;5074183;28;20568;-34
2023/10/11 12:08:57;;;;;;;10.88;2.20;;;19.80;99.90;;;;;;5080683;28;20090;-35
2023/10/11 12:11:28;;;;;;;6.35;1.83;;;19.80;99.90;;;;;;5084777;28;20194;-33
2023/10/11 12:13:58;;;;;;;4.55;1.70;;;19.80;99.90;;;;;;5074373;28;20059;-33
2023/10/11 12:16:24;;;;;;;7.68;1.90;;;19.80;99.90;;;;;;5059654;28;20558;-33
2023/10/11 12:18:58;;;;;;;6.45;1.95;;;19.80;99.90;;;;;;5063909;28;20046;-34
2023/10/11 12:21:25;;;;;;;7.57;1.98;;;20.00;99.90;;;;;;5090415;28;20040;-43
2023/10/11 12:23:51;;;;;;;9.30;1.77;;;20.00;99.90;;;;;;5075203;28;20604;-33
2023/10/11 12:26:17;;;;;;;7.75;2.55;;;20.10;99.90;;;;;;5070162;28;20107;-33
2023/10/11 12:28:46;;;;;;;5.25;1.80;;;20.20;99.90;;;;;;5068048;28;20066;-33
2023/10/11 12:31:12;;;;;;;5.85;1.70;;;20.30;99.90;;;;;;5069607;28;20045;-33
2023/10/11 12:33:39;;;;;;;5.68;1.75;;;20.20;99.90;;;;;;5070066;28;20406;-33
2023/10/11 12:36:05;;;;;;;5.40;1.73;;;20.10;99.90;;;;;;5074099;28;20087;-33
2023/10/11 12:38:39;;;;;;;5.70;1.83;;;20.10;99.90;;;;;;5071370;28;20056;-33
2023/10/11 12:41:06;;;;;;;4.28;1.45;;;20.20;99.90;;;;;;5080618;28;20076;-34
2023/10/11 12:43:32;;;;;;;5.20;1.65;;;20.40;99.90;;;;;;5074227;28;20053;-33
2023/10/11 12:46:01;;;;;;;7.53;1.88;;;20.60;99.90;;;;;;5075020;28;20493;-33
2023/10/11 12:48:27;;;;;;;4.47;1.20;;;20.90;99.90;;;;;;5069266;28;20114;-33
2023/10/11 12:50:53;;;;;;;4.55;1.38;;;21.10;99.90;;;;;;5076634;28;20474;-33
2023/10/11 12:53:19;;;;;;;5.20;1.50;;;21.30;99.90;;;;;;5055893;28;20052;-33
2023/10/11 12:55:49;;;;;;;4.30;1.48;;;21.30;99.90;;;;;;5075401;28;20067;-33
2023/10/11 12:58:15;;;;;;;4.13;1.25;;;21.20;99.90;;;;;;5082551;28;20056;-33
2023/10/11 13:00:51;;;;;;;7.25;1.83;;;21.10;99.90;;;;;;5074954;28;20608;-34
2023/10/11 13:03:29;;;;;;;4.72;1.20;;;20.90;99.90;;;;;;5073992;28;20055;-34
2023/10/11 13:05:56;;;;;;;4.00;1.60;;;20.80;99.90;;;;;;5090620;28;20072;-33
2023/10/11 13:08:26;;;;;;;6.65;2.00;;;20.70;99.90;;;;;;5078229;28;20045;-33
2023/10/11 13:10:53;;;;;;;7.85;1.92;;;20.70;99.90;;;;;;5072371;28;20131;-33
2023/10/11 13:13:21;;;;;;;6.85;1.70;;;20.80;99.90;;;;;;5070105;28;20060;-36
2023/10/11 13:16:01;;;;;;;11.68;1.88;;;20.70;99.90;;;;;;5080098;28;20040;-34
2023/10/11 13:18:40;;;;;;;6.15;1.80;;;20.60;99.90;;;;;;5077904;28;20052;-34
2023/10/11 13:21:16;;;;;;;6.18;2.30;;;20.50;99.90;;;;;;5070064;28;20476;-34
2023/10/11 13:23:43;;;;;;;5.28;2.10;;;20.40;99.90;;;;;;5077333;28;20510;-34
2023/10/11 13:26:09;;;;;;;8.02;2.70;;;20.20;99.90;;;;;;5063362;28;20049;-34
2023/10/11 13:28:40;;;;;;;6.70;3.10;;;20.20;99.90;;;;;;5070246;28;20093;-34
2023/10/11 13:31:09;;;;;;;7.30;3.25;;;20.20;99.90;;;;;;5060542;28;20082;-34
2023/10/11 13:33:35;;;;;;;12.40;3.97;;;20.20;99.90;;;;;;5061009;28;20045;-34
2023/10/11 13:36:05;;;;;;;6.32;3.50;;;20.10;99.90;;;;;;5060173;28;20094;-40
2023/10/11 13:38:31;;;;;;;10.98;3.47;;;20.10;99.90;;;;;;5062152;28;20525;-34
2023/10/11 13:41:00;;;;;;;9.13;3.53;;;20.00;99.90;;;;;;5059452;28;20048;-34
2023/10/11 13:43:26;;;;;;;10.77;3.72;;;20.00;99.90;;;;;;5054586;28;20539;-34
2023/10/11 13:46:07;;;;;;;6.22;3.13;;;20.00;99.90;;;;;;5039606;28;20052;-34
2023/10/11 13:48:37;;;;;;;9.07;3.20;;;19.90;99.90;;;;;;5068330;28;20060;-34
2023/10/11 13:51:06;;;;;;;9.65;3.22;;;19.90;99.90;;;;;;5045564;28;20037;-34
2023/10/11 13:53:32;;;;;;;8.60;3.10;;;19.80;99.90;;;;;;5046875;28;20056;-34
2023/10/11 13:56:10;;;;;;;5.15;2.45;;;19.80;99.90;;;;;;5044916;28;20134;-34
2023/10/11 13:58:36;;;;;;;8.95;2.33;;;19.90;99.90;;;;;;5058648;28;20076;-34
2023/10/11 14:01:12;;;;;;;7.20;2.10;;;20.20;99.90;;;;;;5058629;28;20063;-34
2023/10/11 14:03:56;;;;;;;7.95;1.90;;;20.40;99.90;;;;;;5061234;28;20089;-34
2023/10/11 14:06:42;;;;;;;4.72;1.73;;;20.50;99.90;;;;;;5057772;28;20052;-33
2023/10/11 14:09:17;;;;;;;6.88;2.20;;;20.50;99.90;;;;;;5049306;28;20415;-34
2023/10/11 14:11:48;;;;;;;5.65;1.80;;;20.40;99.90;;;;;;5058297;28;20056;-33
2023/10/11 14:14:20;;;;;;;4.45;1.52;;;20.30;99.90;;;;;;5061662;28;20098;-34
2023/10/11 14:16:47;;;;;;;6.20;2.00;;;20.20;99.90;;;;;;5045370;28;20571;-34